sensor_id;sensor_type;location;lat;lon;timestamp;pressure;altitude;pressure_sealevel;temperature;humidity
27623;BME280;15041;45.334;5.622;2022-07-29T00:01:49;99014.97;;;25.67;42.77
27623;BME280;15041;45.334;5.622;2022-07-29T00:04:18;99016.56;;;25.68;42.91
27623;BME280;15041;45.334;5.622;2022-07-29T00:06:46;99024.00;;;25.64;42.70
27623;BME280;15041;45.334;5.622;2022-07-29T00:09:14;99029.50;;;25.45;44.04
27623;BME280;15041;45.334;5.622;2022-07-29T00:11:41;99033.16;;;25.68;43.67
27623;BME280;15041;45.334;5.622;2022-07-29T00:14:09;99037.09;;;25.67;42.97
27623;BME280;15041;45.334;5.622;2022-07-29T00:16:36;99035.91;;;25.49;44.03
27623;BME280;15041;45.334;5.622;2022-07-29T00:19:03;99031.00;;;25.58;43.66
27623;BME280;15041;45.334;5.622;2022-07-29T00:21:30;99024.28;;;25.59;43.24
27623;BME280;15041;45.334;5.622;2022-07-29T00:23:59;99027.63;;;25.68;42.90
27623;BME280;15041;45.334;5.622;2022-07-29T00:26:26;99038.91;;;25.79;42.57
27623;BME280;15041;45.334;5.622;2022-07-29T00:28:57;99033.38;;;25.79;42.53
27623;BME280;15041;45.334;5.622;2022-07-29T00:31:25;99019.75;;;25.70;42.81
27623;BME280;15041;45.334;5.622;2022-07-29T00:33:55;99028.22;;;25.58;43.05
27623;BME280;15041;45.334;5.622;2022-07-29T00:36:22;99016.66;;;25.53;42.90
27623;BME280;15041;45.334;5.622;2022-07-29T00:38:49;99020.50;;;25.67;42.90
27623;BME280;15041;45.334;5.622;2022-07-29T00:41:18;99027.63;;;25.68;42.97
27623;BME280;15041;45.334;5.622;2022-07-29T00:43:45;99029.81;;;25.59;43.09
27623;BME280;15041;45.334;5.622;2022-07-29T00:46:13;99034.53;;;25.59;43.26
27623;BME280;15041;45.334;5.622;2022-07-29T00:48:40;99028.78;;;25.48;43.37
27623;BME280;15041;45.334;5.622;2022-07-29T00:51:07;99019.19;;;25.42;43.04
27623;BME280;15041;45.334;5.622;2022-07-29T00:53:36;99017.00;;;25.51;42.85
27623;BME280;15041;45.334;5.622;2022-07-29T00:56:03;99019.97;;;25.43;43.28
27623;BME280;15041;45.334;5.622;2022-07-29T00:58:32;99022.53;;;25.51;43.83
27623;BME280;15041;45.334;5.622;2022-07-29T01:00:59;99013.88;;;25.53;43.61
27623;BME280;15041;45.334;5.622;2022-07-29T01:03:26;99011.50;;;25.51;43.37
27623;BME280;15041;45.334;5.622;2022-07-29T01:05:54;99006.94;;;25.24;45.31
27623;BME280;15041;45.334;5.622;2022-07-29T01:08:23;99015.41;;;25.31;44.93
27623;BME280;15041;45.334;5.622;2022-07-29T01:10:51;99012.06;;;25.41;44.83
27623;BME280;15041;45.334;5.622;2022-07-29T01:13:19;99007.22;;;25.19;44.92
27623;BME280;15041;45.334;5.622;2022-07-29T01:15:55;99001.00;;;24.72;47.31
27623;BME280;15041;45.334;5.622;2022-07-29T01:18:29;99001.84;;;25.07;46.05
27623;BME280;15041;45.334;5.622;2022-07-29T01:26:55;99009.97;;;25.19;45.84
27623;BME280;15041;45.334;5.622;2022-07-29T01:29:26;99005.03;;;25.09;46.44
27623;BME280;15041;45.334;5.622;2022-07-29T01:31:58;98999.47;;;24.75;47.85
27623;BME280;15041;45.334;5.622;2022-07-29T01:34:38;99001.66;;;25.00;47.21
27623;BME280;15041;45.334;5.622;2022-07-29T01:37:17;99012.84;;;23.83;52.20
27623;BME280;15041;45.334;5.622;2022-07-29T01:39:46;99008.84;;;24.39;50.51
27623;BME280;15041;45.334;5.622;2022-07-29T01:42:20;99002.25;;;24.59;49.49
27623;BME280;15041;45.334;5.622;2022-07-29T01:44:55;99012.59;;;24.62;49.26
27623;BME280;15041;45.334;5.622;2022-07-29T01:47:26;99002.41;;;24.35;50.36
27623;BME280;15041;45.334;5.622;2022-07-29T01:49:56;98997.91;;;24.27;51.01
27623;BME280;15041;45.334;5.622;2022-07-29T01:52:31;99002.88;;;24.53;49.84
27623;BME280;15041;45.334;5.622;2022-07-29T01:54:59;99000.03;;;23.75;54.47
27623;BME280;15041;45.334;5.622;2022-07-29T01:57:31;98989.97;;;24.10;52.86
27623;BME280;15041;45.334;5.622;2022-07-29T02:00:00;98990.25;;;24.21;52.62
27623;BME280;15041;45.334;5.622;2022-07-29T02:02:39;98989.59;;;23.96;53.53
27623;BME280;15041;45.334;5.622;2022-07-29T02:05:10;98988.34;;;24.09;52.58
27623;BME280;15041;45.334;5.622;2022-07-29T02:07:39;98990.78;;;24.26;51.95
27623;BME280;15041;45.334;5.622;2022-07-29T02:10:08;98993.72;;;24.02;53.26
27623;BME280;15041;45.334;5.622;2022-07-29T02:12:37;98985.44;;;24.18;52.16
27623;BME280;15041;45.334;5.622;2022-07-29T02:15:07;98968.47;;;24.31;51.58
27623;BME280;15041;45.334;5.622;2022-07-29T02:17:39;98981.44;;;24.46;51.02
27623;BME280;15041;45.334;5.622;2022-07-29T02:20:09;98976.09;;;24.53;51.17
27623;BME280;15041;45.334;5.622;2022-07-29T02:22:38;98974.50;;;24.52;50.41
27623;BME280;15041;45.334;5.622;2022-07-29T02:25:07;98970.56;;;24.53;49.87
27623;BME280;15041;45.334;5.622;2022-07-29T02:27:37;98978.22;;;24.13;52.59
27623;BME280;15041;45.334;5.622;2022-07-29T02:30:07;98985.72;;;23.97;53.90
27623;BME280;15041;45.334;5.622;2022-07-29T02:32:37;98984.63;;;24.17;52.72
27623;BME280;15041;45.334;5.622;2022-07-29T02:35:07;98986.84;;;24.12;52.59
27623;BME280;15041;45.334;5.622;2022-07-29T02:37:36;98985.44;;;24.33;51.64
27623;BME280;15041;45.334;5.622;2022-07-29T02:40:04;98987.75;;;24.47;50.95
27623;BME280;15041;45.334;5.622;2022-07-29T02:42:33;98996.81;;;24.32;52.07
27623;BME280;15041;45.334;5.622;2022-07-29T02:45:04;98998.06;;;23.75;54.09
27623;BME280;15041;45.334;5.622;2022-07-29T02:47:35;99002.28;;;23.85;53.83
27623;BME280;15041;45.334;5.622;2022-07-29T02:50:06;99000.28;;;24.13;52.23
27623;BME280;15041;45.334;5.622;2022-07-29T02:52:40;99003.44;;;24.27;51.05
27623;BME280;15041;45.334;5.622;2022-07-29T02:55:14;98995.31;;;24.34;47.82
27623;BME280;15041;45.334;5.622;2022-07-29T02:57:47;98990.69;;;24.38;48.90
27623;BME280;15041;45.334;5.622;2022-07-29T03:00:16;98992.56;;;24.34;47.95
27623;BME280;15041;45.334;5.622;2022-07-29T03:02:50;98993.91;;;24.40;47.13
27623;BME280;15041;45.334;5.622;2022-07-29T03:05:20;98996.66;;;24.40;46.62
27623;BME280;15041;45.334;5.622;2022-07-29T03:07:51;99000.47;;;24.36;46.53
27623;BME280;15041;45.334;5.622;2022-07-29T03:10:20;98998.88;;;24.19;46.78
27623;BME280;15041;45.334;5.622;2022-07-29T03:12:48;98990.59;;;24.35;45.87
27623;BME280;15041;45.334;5.622;2022-07-29T03:15:15;98998.34;;;24.29;46.62
27623;BME280;15041;45.334;5.622;2022-07-29T03:17:44;98991.84;;;24.37;45.94
27623;BME280;15041;45.334;5.622;2022-07-29T03:20:13;98991.31;;;24.01;50.72
27623;BME280;15041;45.334;5.622;2022-07-29T03:22:41;99009.44;;;22.95;57.67
27623;BME280;15041;45.334;5.622;2022-07-29T03:25:10;99016.09;;;22.94;58.44
27623;BME280;15041;45.334;5.622;2022-07-29T03:27:37;99021.09;;;23.16;57.29
27623;BME280;15041;45.334;5.622;2022-07-29T03:30:06;99020.00;;;23.05;58.28
27623;BME280;15041;45.334;5.622;2022-07-29T03:32:33;99022.75;;;22.93;58.38
27623;BME280;15041;45.334;5.622;2022-07-29T03:35:03;99030.41;;;23.11;56.90
27623;BME280;15041;45.334;5.622;2022-07-29T03:37:31;99016.84;;;23.30;56.45
27623;BME280;15041;45.334;5.622;2022-07-29T03:40:01;99027.19;;;23.09;57.38
27623;BME280;15041;45.334;5.622;2022-07-29T03:42:31;99020.19;;;23.12;56.57
27623;BME280;15041;45.334;5.622;2022-07-29T03:45:02;99025.00;;;23.39;55.75
27623;BME280;15041;45.334;5.622;2022-07-29T03:47:31;99025.69;;;23.36;55.65
27623;BME280;15041;45.334;5.622;2022-07-29T03:50:05;99027.19;;;23.21;57.27
27623;BME280;15041;45.334;5.622;2022-07-29T03:52:33;99022.06;;;22.96;58.92
27623;BME280;15041;45.334;5.622;2022-07-29T03:55:01;99031.25;;;23.00;58.13
27623;BME280;15041;45.334;5.622;2022-07-29T03:57:31;99048.09;;;22.98;58.15
27623;BME280;15041;45.334;5.622;2022-07-29T04:00:02;99054.63;;;23.06;57.36
27623;BME280;15041;45.334;5.622;2022-07-29T04:02:30;99048.56;;;22.88;58.24
27623;BME280;15041;45.334;5.622;2022-07-29T04:04:58;99053.50;;;22.47;60.78
27623;BME280;15041;45.334;5.622;2022-07-29T04:07:27;99062.00;;;22.66;59.56
27623;BME280;15041;45.334;5.622;2022-07-29T04:09:55;99064.06;;;22.81;57.94
27623;BME280;15041;45.334;5.622;2022-07-29T04:12:22;99064.16;;;22.84;57.92
27623;BME280;15041;45.334;5.622;2022-07-29T04:14:50;99059.91;;;22.51;59.08
27623;BME280;15041;45.334;5.622;2022-07-29T04:17:17;99054.78;;;22.17;60.63
27623;BME280;15041;45.334;5.622;2022-07-29T04:19:44;99056.50;;;22.54;58.91
27623;BME280;15041;45.334;5.622;2022-07-29T04:22:11;99060.75;;;22.07;62.92
27623;BME280;15041;45.334;5.622;2022-07-29T04:24:39;99065.47;;;21.86;64.57
27623;BME280;15041;45.334;5.622;2022-07-29T04:27:07;99066.66;;;21.97;63.56
27623;BME280;15041;45.334;5.622;2022-07-29T04:29:34;99066.41;;;22.02;62.40
27623;BME280;15041;45.334;5.622;2022-07-29T04:32:01;99065.63;;;21.28;65.59
27623;BME280;15041;45.334;5.622;2022-07-29T04:34:28;99070.72;;;21.79;63.67
27623;BME280;15041;45.334;5.622;2022-07-29T04:36:55;99061.47;;;22.28;61.48
27623;BME280;15041;45.334;5.622;2022-07-29T04:39:22;99069.91;;;22.11;61.30
27623;BME280;15041;45.334;5.622;2022-07-29T04:41:50;99081.41;;;22.37;60.28
27623;BME280;15041;45.334;5.622;2022-07-29T04:44:18;99071.78;;;22.31;60.39
27623;BME280;15041;45.334;5.622;2022-07-29T04:46:45;99080.28;;;22.38;59.97
27623;BME280;15041;45.334;5.622;2022-07-29T04:49:12;99085.22;;;22.00;62.95
27623;BME280;15041;45.334;5.622;2022-07-29T04:51:40;99085.44;;;21.95;63.96
27623;BME280;15041;45.334;5.622;2022-07-29T04:54:07;99078.22;;;21.70;63.81
27623;BME280;15041;45.334;5.622;2022-07-29T04:56:34;99079.94;;;21.95;63.49
27623;BME280;15041;45.334;5.622;2022-07-29T04:59:02;99079.50;;;22.05;64.12
27623;BME280;15041;45.334;5.622;2022-07-29T05:01:29;99080.44;;;22.09;63.75
27623;BME280;15041;45.334;5.622;2022-07-29T05:03:56;99073.41;;;22.44;62.09
27623;BME280;15041;45.334;5.622;2022-07-29T05:06:23;99074.38;;;22.60;61.44
27623;BME280;15041;45.334;5.622;2022-07-29T05:08:50;99076.22;;;22.68;61.30
27623;BME280;15041;45.334;5.622;2022-07-29T05:11:18;99084.22;;;22.49;60.03
27623;BME280;15041;45.334;5.622;2022-07-29T05:13:45;99079.34;;;21.89;62.29
27623;BME280;15041;45.334;5.622;2022-07-29T05:16:13;99089.38;;;22.18;62.23
27623;BME280;15041;45.334;5.622;2022-07-29T05:18:40;99094.09;;;22.50;60.85
27623;BME280;15041;45.334;5.622;2022-07-29T05:21:08;99096.59;;;23.39;56.60
27623;BME280;15041;45.334;5.622;2022-07-29T05:23:35;99096.50;;;23.75;55.55
27623;BME280;15041;45.334;5.622;2022-07-29T05:26:02;99097.47;;;24.22;53.63
27623;BME280;15041;45.334;5.622;2022-07-29T05:28:33;99100.56;;;23.65;56.44
27623;BME280;15041;45.334;5.622;2022-07-29T05:31:00;99105.28;;;22.45;61.10
27623;BME280;15041;45.334;5.622;2022-07-29T05:33:28;99107.19;;;22.32;62.54
27623;BME280;15041;45.334;5.622;2022-07-29T05:35:55;99118.28;;;22.80;59.33
27623;BME280;15041;45.334;5.622;2022-07-29T05:38:23;99116.47;;;22.28;62.01
27623;BME280;15041;45.334;5.622;2022-07-29T05:40:50;99093.47;;;23.92;55.25
27623;BME280;15041;45.334;5.622;2022-07-29T05:43:17;99078.47;;;23.38;56.70
27623;BME280;15041;45.334;5.622;2022-07-29T05:45:44;99080.09;;;23.03;58.26
27623;BME280;15041;45.334;5.622;2022-07-29T05:48:11;99088.78;;;24.51;52.83
27623;BME280;15041;45.334;5.622;2022-07-29T05:50:40;99098.25;;;23.67;61.78
27623;BME280;15041;45.334;5.622;2022-07-29T05:53:13;99102.78;;;23.12;65.82
27623;BME280;15041;45.334;5.622;2022-07-29T05:55:41;99099.72;;;22.21;72.96
27623;BME280;15041;45.334;5.622;2022-07-29T05:58:08;99100.88;;;23.76;58.92
27623;BME280;15041;45.334;5.622;2022-07-29T06:00:35;99107.03;;;23.45;68.48
27623;BME280;15041;45.334;5.622;2022-07-29T06:03:03;99113.03;;;23.75;63.60
27623;BME280;15041;45.334;5.622;2022-07-29T06:05:30;99115.97;;;23.54;66.09
27623;BME280;15041;45.334;5.622;2022-07-29T06:07:58;99121.28;;;22.31;79.14
27623;BME280;15041;45.334;5.622;2022-07-29T06:10:25;99123.25;;;22.10;79.00
27623;BME280;15041;45.334;5.622;2022-07-29T06:12:52;99116.66;;;22.11;80.28
27623;BME280;15041;45.334;5.622;2022-07-29T06:15:20;99119.09;;;22.81;75.17
27623;BME280;15041;45.334;5.622;2022-07-29T06:17:47;99115.47;;;22.44;73.59
27623;BME280;15041;45.334;5.622;2022-07-29T06:20:15;99125.84;;;22.27;72.94
27623;BME280;15041;45.334;5.622;2022-07-29T06:22:42;99122.09;;;23.00;69.30
27623;BME280;15041;45.334;5.622;2022-07-29T06:25:11;99126.25;;;23.30;66.20
27623;BME280;15041;45.334;5.622;2022-07-29T06:27:38;99116.81;;;23.19;68.14
27623;BME280;15041;45.334;5.622;2022-07-29T06:30:06;99117.16;;;23.41;68.49
27623;BME280;15041;45.334;5.622;2022-07-29T06:32:33;99124.03;;;23.35;72.38
27623;BME280;15041;45.334;5.622;2022-07-29T06:35:00;99118.75;;;23.42;68.28
27623;BME280;15041;45.334;5.622;2022-07-29T06:37:27;99118.09;;;23.73;64.60
27623;BME280;15041;45.334;5.622;2022-07-29T06:39:55;99120.84;;;23.73;64.26
27623;BME280;15041;45.334;5.622;2022-07-29T06:42:37;99129.44;;;23.83;61.03
27623;BME280;15041;45.334;5.622;2022-07-29T06:45:05;99125.59;;;23.60;62.86
27623;BME280;15041;45.334;5.622;2022-07-29T06:47:32;99120.97;;;22.44;67.73
27623;BME280;15041;45.334;5.622;2022-07-29T06:49:59;99131.44;;;22.51;69.49
27623;BME280;15041;45.334;5.622;2022-07-29T06:52:26;99140.41;;;22.60;69.08
27623;BME280;15041;45.334;5.622;2022-07-29T06:54:53;99143.88;;;22.93;67.30
27623;BME280;15041;45.334;5.622;2022-07-29T06:57:21;99152.50;;;23.15;65.01
27623;BME280;15041;45.334;5.622;2022-07-29T06:59:49;99153.28;;;23.52;62.64
27623;BME280;15041;45.334;5.622;2022-07-29T07:02:16;99163.81;;;23.74;61.30
27623;BME280;15041;45.334;5.622;2022-07-29T07:04:43;99155.53;;;23.74;60.54
27623;BME280;15041;45.334;5.622;2022-07-29T07:07:11;99151.84;;;23.82;59.47
27623;BME280;15041;45.334;5.622;2022-07-29T07:09:38;99147.94;;;23.83;61.01
27623;BME280;15041;45.334;5.622;2022-07-29T07:12:05;99145.13;;;23.55;62.14
27623;BME280;15041;45.334;5.622;2022-07-29T07:14:32;99142.91;;;23.73;62.14
27623;BME280;15041;45.334;5.622;2022-07-29T07:17:01;99137.13;;;23.90;61.94
27623;BME280;15041;45.334;5.622;2022-07-29T07:19:29;99138.69;;;24.03;62.34
27623;BME280;15041;45.334;5.622;2022-07-29T07:21:56;99134.03;;;23.04;63.97
27623;BME280;15041;45.334;5.622;2022-07-29T07:24:24;99126.91;;;22.79;67.43
27623;BME280;15041;45.334;5.622;2022-07-29T07:26:51;99129.44;;;23.32;65.17
27623;BME280;15041;45.334;5.622;2022-07-29T07:29:18;99126.50;;;23.64;63.00
27623;BME280;15041;45.334;5.622;2022-07-29T07:31:45;99121.50;;;23.82;62.91
27623;BME280;15041;45.334;5.622;2022-07-29T07:34:14;99129.78;;;23.94;60.52
27623;BME280;15041;45.334;5.622;2022-07-29T07:36:41;99126.00;;;24.57;57.58
27623;BME280;15041;45.334;5.622;2022-07-29T07:39:08;99129.44;;;24.39;58.06
27623;BME280;15041;45.334;5.622;2022-07-29T07:41:35;99130.22;;;23.84;63.30
27623;BME280;15041;45.334;5.622;2022-07-29T07:44:03;99136.34;;;23.77;63.97
27623;BME280;15041;45.334;5.622;2022-07-29T07:46:31;99135.75;;;23.84;61.70
27623;BME280;15041;45.334;5.622;2022-07-29T07:48:58;99130.84;;;23.26;62.84
27623;BME280;15041;45.334;5.622;2022-07-29T07:51:26;99132.75;;;22.89;65.50
27623;BME280;15041;45.334;5.622;2022-07-29T07:53:53;99137.56;;;22.92;63.98
27623;BME280;15041;45.334;5.622;2022-07-29T07:56:21;99127.50;;;23.20;62.94
27623;BME280;15041;45.334;5.622;2022-07-29T07:58:48;99136.50;;;23.69;60.57
27623;BME280;15041;45.334;5.622;2022-07-29T08:01:15;99132.28;;;23.99;58.74
27623;BME280;15041;45.334;5.622;2022-07-29T08:03:44;99134.28;;;23.23;62.04
27623;BME280;15041;45.334;5.622;2022-07-29T08:06:11;99131.50;;;23.23;62.91
27623;BME280;15041;45.334;5.622;2022-07-29T08:08:40;99129.97;;;23.61;61.50
27623;BME280;15041;45.334;5.622;2022-07-29T08:11:07;99135.84;;;24.00;59.65
27623;BME280;15041;45.334;5.622;2022-07-29T08:13:34;99136.06;;;24.22;57.92
27623;BME280;15041;45.334;5.622;2022-07-29T08:16:02;99149.63;;;24.27;57.65
27623;BME280;15041;45.334;5.622;2022-07-29T08:18:38;99146.88;;;24.27;58.96
27623;BME280;15041;45.334;5.622;2022-07-29T08:21:05;99158.69;;;24.28;58.57
27623;BME280;15041;45.334;5.622;2022-07-29T08:23:33;99170.38;;;24.37;58.90
27623;BME280;15041;45.334;5.622;2022-07-29T08:26:06;99188.69;;;24.57;59.35
27623;BME280;15041;45.334;5.622;2022-07-29T08:28:36;99202.28;;;24.50;58.35
27623;BME280;15041;45.334;5.622;2022-07-29T08:31:04;99220.34;;;24.75;56.37
27623;BME280;15041;45.334;5.622;2022-07-29T08:33:31;99239.19;;;24.57;58.24
27623;BME280;15041;45.334;5.622;2022-07-29T08:35:59;99255.28;;;24.55;62.04
27623;BME280;15041;45.334;5.622;2022-07-29T08:38:26;99262.97;;;24.22;62.29
27623;BME280;15041;45.334;5.622;2022-07-29T08:40:53;99278.91;;;23.77;68.10
27623;BME280;15041;45.334;5.622;2022-07-29T08:43:22;99293.16;;;24.43;66.94
27623;BME280;15041;45.334;5.622;2022-07-29T08:45:51;99311.50;;;24.11;71.81
27623;BME280;15041;45.334;5.622;2022-07-29T08:48:20;99336.56;;;24.06;70.00
27623;BME280;15041;45.334;5.622;2022-07-29T08:50:50;99348.53;;;24.10;65.45
27623;BME280;15041;45.334;5.622;2022-07-29T08:53:19;99377.88;;;23.70;67.29
27623;BME280;15041;45.334;5.622;2022-07-29T08:55:49;99379.13;;;24.57;61.68
27623;BME280;15041;45.334;5.622;2022-07-29T08:58:17;99375.00;;;24.51;64.58
27623;BME280;15041;45.334;5.622;2022-07-29T09:00:49;99385.31;;;24.78;62.74
27623;BME280;15041;45.334;5.622;2022-07-29T09:03:18;99394.59;;;24.34;69.00
27623;BME280;15041;45.334;5.622;2022-07-29T09:05:47;99411.41;;;23.60;76.57
27623;BME280;15041;45.334;5.622;2022-07-29T09:08:15;99421.69;;;24.56;66.01
27623;BME280;15041;45.334;5.622;2022-07-29T09:10:43;99439.41;;;23.95;79.63
27623;BME280;15041;45.334;5.622;2022-07-29T09:13:10;99457.47;;;24.64;66.88
27623;BME280;15041;45.334;5.622;2022-07-29T09:15:38;99467.31;;;24.05;74.20
27623;BME280;15041;45.334;5.622;2022-07-29T09:18:06;99477.94;;;23.70;79.42
27623;BME280;15041;45.334;5.622;2022-07-29T09:20:33;99488.47;;;23.36;77.36
27623;BME280;15041;45.334;5.622;2022-07-29T09:23:14;99500.75;;;23.59;76.06
27623;BME280;15041;45.334;5.622;2022-07-29T09:25:42;99501.50;;;24.13;71.62
27623;BME280;15041;45.334;5.622;2022-07-29T09:28:10;99505.63;;;23.74;78.64
27623;BME280;15041;45.334;5.622;2022-07-29T09:30:49;99510.47;;;23.77;79.42
27623;BME280;15041;45.334;5.622;2022-07-29T09:33:19;99521.72;;;23.84;79.18
27623;BME280;15041;45.334;5.622;2022-07-29T09:35:58;99526.97;;;23.24;86.70
27623;BME280;15041;45.334;5.622;2022-07-29T09:38:25;99520.56;;;23.73;79.48
27623;BME280;15041;45.334;5.622;2022-07-29T09:40:56;99526.22;;;23.56;83.35
27623;BME280;15041;45.334;5.622;2022-07-29T09:43:24;99520.03;;;23.18;91.00
27623;BME280;15041;45.334;5.622;2022-07-29T09:45:51;99521.50;;;22.95;90.51
27623;BME280;15041;45.334;5.622;2022-07-29T09:48:21;99508.03;;;23.43;85.38
27623;BME280;15041;45.334;5.622;2022-07-29T09:50:50;99526.25;;;22.57;96.77
27623;BME280;15041;45.334;5.622;2022-07-29T09:53:31;99524.91;;;22.34;100.00
27623;BME280;15041;45.334;5.622;2022-07-29T09:55:58;99524.72;;;22.39;100.00
27623;BME280;15041;45.334;5.622;2022-07-29T09:58:26;99521.13;;;22.09;100.00
27623;BME280;15041;45.334;5.622;2022-07-29T10:00:55;99518.69;;;22.08;100.00
27623;BME280;15041;45.334;5.622;2022-07-29T10:03:23;99516.25;;;22.44;100.00
27623;BME280;15041;45.334;5.622;2022-07-29T10:06:05;99504.16;;;22.74;94.91
27623;BME280;15041;45.334;5.622;2022-07-29T10:08:33;99498.41;;;23.08;89.40
27623;BME280;15041;45.334;5.622;2022-07-29T10:11:09;99488.03;;;22.64;99.32
27623;BME280;15041;45.334;5.622;2022-07-29T10:13:36;99492.13;;;22.58;95.47
27623;BME280;15041;45.334;5.622;2022-07-29T10:16:05;99483.63;;;22.34;100.00
27623;BME280;15041;45.334;5.622;2022-07-29T10:18:34;99477.44;;;22.74;94.60
27623;BME280;15041;45.334;5.622;2022-07-29T10:21:01;99467.63;;;22.65;100.00
27623;BME280;15041;45.334;5.622;2022-07-29T10:23:29;99461.59;;;23.33;86.43
27623;BME280;15041;45.334;5.622;2022-07-29T10:25:57;99466.94;;;22.47;99.42
27623;BME280;15041;45.334;5.622;2022-07-29T10:28:24;99443.78;;;22.40;95.21
27623;BME280;15041;45.334;5.622;2022-07-29T10:30:52;99454.50;;;22.04;99.77
27623;BME280;15041;45.334;5.622;2022-07-29T10:33:38;99442.25;;;21.13;100.00
27623;BME280;15041;45.334;5.622;2022-07-29T10:36:25;99450.41;;;21.72;100.00
27623;BME280;15041;45.334;5.622;2022-07-29T10:39:02;99439.72;;;22.17;100.00
27623;BME280;15041;45.334;5.622;2022-07-29T10:41:56;99438.38;;;22.23;100.00
27623;BME280;15041;45.334;5.622;2022-07-29T10:44:26;99443.88;;;22.23;100.00
27623;BME280;15041;45.334;5.622;2022-07-29T10:46:54;99441.94;;;22.32;100.00
27623;BME280;15041;45.334;5.622;2022-07-29T10:49:25;99439.72;;;22.75;97.25
27623;BME280;15041;45.334;5.622;2022-07-29T10:52:01;99440.91;;;22.86;96.35
27623;BME280;15041;45.334;5.622;2022-07-29T10:54:41;99451.91;;;21.53;100.00
27623;BME280;15041;45.334;5.622;2022-07-29T10:57:17;99456.25;;;21.54;100.00
27623;BME280;15041;45.334;5.622;2022-07-29T10:59:47;99445.22;;;21.79;100.00
27623;BME280;15041;45.334;5.622;2022-07-29T11:02:41;99445.63;;;21.18;100.00
27623;BME280;15041;45.334;5.622;2022-07-29T11:05:11;99435.78;;;21.97;100.00
27623;BME280;15041;45.334;5.622;2022-07-29T11:07:40;99440.47;;;21.97;100.00
27623;BME280;15041;45.334;5.622;2022-07-29T11:10:27;99419.34;;;22.18;100.00
27623;BME280;15041;45.334;5.622;2022-07-29T11:12:54;99417.69;;;22.54;98.40
27623;BME280;15041;45.334;5.622;2022-07-29T11:15:22;99412.84;;;23.13;91.46
27623;BME280;15041;45.334;5.622;2022-07-29T11:18:06;99412.19;;;24.29;79.79
27623;BME280;15041;45.334;5.622;2022-07-29T11:20:37;99413.78;;;23.94;83.11
27623;BME280;15041;45.334;5.622;2022-07-29T11:23:24;99413.88;;;23.41;91.39
27623;BME280;15041;45.334;5.622;2022-07-29T11:26:14;99414.81;;;23.45;89.44
27623;BME280;15041;45.334;5.622;2022-07-29T11:28:59;99401.84;;;23.13;91.03
27623;BME280;15041;45.334;5.622;2022-07-29T11:31:36;99409.53;;;22.87;100.00
27623;BME280;15041;45.334;5.622;2022-07-29T11:34:24;99399.25;;;23.08;100.00
27623;BME280;15041;45.334;5.622;2022-07-29T11:37:21;99403.88;;;22.05;100.00
27623;BME280;15041;45.334;5.622;2022-07-29T11:40:12;99407.19;;;21.90;100.00
27623;BME280;15041;45.334;5.622;2022-07-29T11:42:42;99404.75;;;22.96;92.80
27623;BME280;15041;45.334;5.622;2022-07-29T11:45:10;99414.53;;;22.85;98.25
27623;BME280;15041;45.334;5.622;2022-07-29T11:47:40;99407.38;;;22.14;100.00
27623;BME280;15041;45.334;5.622;2022-07-29T11:50:12;99407.41;;;21.76;100.00
27623;BME280;15041;45.334;5.622;2022-07-29T11:52:42;99404.38;;;22.07;100.00
27623;BME280;15041;45.334;5.622;2022-07-29T11:55:13;99399.03;;;23.01;95.05
27623;BME280;15041;45.334;5.622;2022-07-29T11:57:47;99394.66;;;23.77;86.20
27623;BME280;15041;45.334;5.622;2022-07-29T12:00:23;99399.88;;;23.46;92.22
27623;BME280;15041;45.334;5.622;2022-07-29T12:02:51;99403.44;;;23.14;99.17
27623;BME280;15041;45.334;5.622;2022-07-29T12:05:19;99395.38;;;23.09;100.00
27623;BME280;15041;45.334;5.622;2022-07-29T12:07:48;99391.75;;;23.17;98.29
27623;BME280;15041;45.334;5.622;2022-07-29T12:10:15;99387.75;;;23.59;89.77
27623;BME280;15041;45.334;5.622;2022-07-29T12:12:43;99394.91;;;23.27;94.98
27623;BME280;15041;45.334;5.622;2022-07-29T12:15:18;99397.97;;;22.73;100.00
27623;BME280;15041;45.334;5.622;2022-07-29T12:17:47;99394.38;;;23.46;90.56
27623;BME280;15041;45.334;5.622;2022-07-29T12:20:22;99382.97;;;24.40;81.26
27623;BME280;15041;45.334;5.622;2022-07-29T12:22:51;99384.59;;;24.29;87.75
27623;BME280;15041;45.334;5.622;2022-07-29T12:25:22;99385.50;;;23.85;87.41
27623;BME280;15041;45.334;5.622;2022-07-29T12:27:58;99375.81;;;23.55;87.88
27623;BME280;15041;45.334;5.622;2022-07-29T12:30:35;99375.28;;;23.29;94.37
27623;BME280;15041;45.334;5.622;2022-07-29T12:33:11;99362.91;;;24.67;79.30
27623;BME280;15041;45.334;5.622;2022-07-29T12:35:39;99371.28;;;24.07;86.87
27623;BME280;15041;45.334;5.622;2022-07-29T12:38:09;99360.88;;;24.52;84.27
27623;BME280;15041;45.334;5.622;2022-07-29T12:40:37;99368.38;;;24.91;77.96
27623;BME280;15041;45.334;5.622;2022-07-29T12:43:08;99360.03;;;25.03;76.99
27623;BME280;15041;45.334;5.622;2022-07-29T12:45:36;99357.31;;;24.91;78.84
27623;BME280;15041;45.334;5.622;2022-07-29T12:48:04;99368.38;;;24.91;79.26
27623;BME280;15041;45.334;5.622;2022-07-29T12:50:34;99347.56;;;25.09;77.88
27623;BME280;15041;45.334;5.622;2022-07-29T12:53:12;99350.47;;;25.28;75.07
27623;BME280;15041;45.334;5.622;2022-07-29T12:55:44;99335.88;;;25.43;74.44
27623;BME280;15041;45.334;5.622;2022-07-29T12:58:26;99340.44;;;24.81;81.03
27623;BME280;15041;45.334;5.622;2022-07-29T13:01:05;99340.59;;;25.15;77.39
27623;BME280;15041;45.334;5.622;2022-07-29T13:03:47;99332.13;;;25.51;73.67
27623;BME280;15041;45.334;5.622;2022-07-29T13:06:37;99330.78;;;25.45;73.26
27623;BME280;15041;45.334;5.622;2022-07-29T13:09:09;99331.72;;;25.65;71.53
27623;BME280;15041;45.334;5.622;2022-07-29T13:11:39;99330.34;;;25.43;73.87
27623;BME280;15041;45.334;5.622;2022-07-29T13:14:08;99328.19;;;24.66;80.52
27623;BME280;15041;45.334;5.622;2022-07-29T13:19:36;99323.22;;;25.42;73.21
27623;BME280;15041;45.334;5.622;2022-07-29T13:22:04;99320.72;;;25.37;74.41
27623;BME280;15041;45.334;5.622;2022-07-29T13:24:33;99317.59;;;25.39;73.29